Time;durP1;ratioP1;P1;durP2;ratioP2;P2;SDS_P1;SDS_P2;PMS_P1;PMS_P2;Temp;Humidity;BMP_temperature;BMP_pressure;BME280_temperature;BME280_humidity;BME280_pressure;Samples;Min_cycle;Max_cycle;Signal;HPM_P1;HPM_P2
2023/09/14 00:01:15;;;;;;;3.58;1.95;;;;;;;18.83;58.61;101058.63;4219456;28;20143;-60
2023/09/14 00:03:18;;;;;;;;;;;;;;;18.79;58.79;101063.94;4213664;28;20068;-60
2023/09/14 00:05:21;;;;;;;5.07;1.95;;;;;;;18.65;59.19;101058.84;4228959;28;20286;-60
2023/09/14 00:07:24;;;;;;;3.83;1.95;;;;;;;18.65;59.72;101058.84;4210741;28;20050;-60
2023/09/14 00:09:27;;;;;;;4.43;1.73;;;;;;;18.81;58.51;101059.56;4224967;28;20035;-60
2023/09/14 00:11:29;;;;;;;3.20;1.60;;;;;;;18.66;58.86;101053.53;4225699;28;20036;-60
2023/09/14 00:13:32;;;;;;;4.00;1.77;;;;;;;18.65;58.78;101056.19;4217404;28;20380;-61
2023/09/14 00:15:35;;;;;;;2.50;1.52;;;;;;;18.57;59.06;101056.25;4203574;28;20032;-60
2023/09/14 00:17:40;;;;;;;5.00;1.60;;;;;;;18.59;59.26;101051.00;4225321;28;20047;-60
2023/09/14 00:19:43;;;;;;;5.53;1.90;;;;;;;18.57;59.46;101060.66;4226917;28;20517;-60
2023/09/14 00:21:45;;;;;;;2.53;1.70;;;;;;;18.56;59.08;101053.63;4224292;28;20036;-60
2023/09/14 00:23:48;;;;;;;5.68;2.10;;;;;;;18.51;59.17;101065.97;4222232;28;20042;-60
2023/09/14 00:25:51;;;;;;;5.85;1.90;;;;;;;18.57;58.75;101063.28;4215323;28;20478;-60
2023/09/14 00:27:54;;;;;;;1.85;1.30;;;;;;;18.58;59.05;101062.41;4223587;28;20036;-60
2023/09/14 00:29:57;;;;;;;3.00;1.80;;;;;;;18.51;58.56;101061.56;4208919;28;20060;-60
2023/09/14 00:32:00;;;;;;;2.60;1.60;;;;;;;18.56;57.46;101061.53;4206408;28;20060;-60
2023/09/14 00:34:04;;;;;;;3.63;1.67;;;;;;;18.50;57.79;101065.13;4207132;28;20078;-60
2023/09/14 00:36:07;;;;;;;6.03;1.48;;;;;;;18.40;57.63;101068.69;4204548;28;20036;-60
2023/09/14 00:38:10;;;;;;;4.97;1.80;;;;;;;18.48;57.04;101059.84;4220485;28;20032;-60
2023/09/14 00:40:15;;;;;;;4.22;1.50;;;;;;;18.45;56.73;101062.50;4202856;28;20334;-60
2023/09/14 00:42:18;;;;;;;4.05;2.17;;;;;;;18.35;57.55;101066.09;4205962;28;20068;-60
2023/09/14 00:44:21;;;;;;;4.35;1.80;;;;;;;18.43;56.76;101069.56;4203201;28;20032;-59
2023/09/14 00:46:24;;;;;;;4.30;1.95;;;;;;;18.31;56.97;101074.91;4211727;28;20290;-59
2023/09/14 00:48:32;;;;;;;4.75;2.08;;;;;;;18.23;57.68;101066.22;4226300;28;20679;-60
2023/09/14 00:50:37;;;;;;;8.35;2.30;;;;;;;18.35;57.44;101065.25;4207393;28;20050;-60
2023/09/14 00:52:38;;;;;;;;;;;;;;;18.20;57.59;101072.38;4203570;28;20063;-60
2023/09/14 00:54:41;;;;;;;4.45;1.70;;;;;;;18.18;57.81;101075.88;4206874;28;19966;-60
2023/09/14 00:56:44;;;;;;;4.00;1.90;;;;;;;18.17;57.42;101074.16;4207229;28;20060;-60
2023/09/14 00:58:48;;;;;;;4.38;1.95;;;;;;;18.21;57.29;101071.50;4223259;28;20044;-60
2023/09/14 01:00:51;;;;;;;2.95;1.70;;;;;;;18.19;57.71;101069.75;4202033;28;20040;-60
2023/09/14 01:02:56;;;;;;;3.73;2.00;;;;;;;18.13;57.78;101071.53;4207083;22;20033;-61
2023/09/14 01:05:02;;;;;;;4.43;2.33;;;;;;;18.14;57.74;101068.03;4159093;28;20045;-61
2023/09/14 01:07:08;;;;;;;5.75;1.85;;;;;;;18.16;57.02;101065.38;4178462;28;20068;-62
2023/09/14 01:09:11;;;;;;;4.80;2.10;;;;;;;18.14;56.57;101061.91;4160757;28;20033;-61
2023/09/14 01:11:14;;;;;;;4.20;2.08;;;;;;;18.05;56.91;101062.84;4178809;28;20135;-61
2023/09/14 01:13:30;;;;;;;5.05;2.20;;;;;;;18.09;57.82;101063.66;4160911;28;20045;-61
2023/09/14 01:15:38;;;;;;;4.18;2.25;;;;;;;18.08;57.46;101067.22;4159767;28;20041;-61
2023/09/14 01:17:53;;;;;;;4.13;2.00;;;;;;;18.14;57.34;101057.50;4175989;28;20421;-61
2023/09/14 01:20:03;;;;;;;4.72;2.00;;;;;;;18.10;57.85;101063.66;4160134;28;20112;-62
2023/09/14 01:22:35;;;;;;;4.85;2.15;;;;;;;18.19;56.86;101067.13;4160177;28;20053;-61
2023/09/14 01:24:47;;;;;;;4.43;2.30;;;;;;;18.00;57.79;101067.25;4158905;28;20042;-61
2023/09/14 01:26:52;;;;;;;5.55;2.78;;;;;;;17.99;58.10;101065.50;4160716;28;20041;-61
2023/09/14 01:28:54;;;;;;;4.28;2.15;;;;;;;17.96;57.29;101070.81;4160185;28;20033;-61
2023/09/14 01:30:58;;;;;;;5.43;2.25;;;;;;;17.87;57.81;101062.91;4158074;28;20416;-61
2023/09/14 01:33:00;;;;;;;7.85;2.67;;;;;;;17.94;57.22;101069.91;4178937;28;20110;-60
2023/09/14 01:35:04;;;;;;;8.38;2.72;;;;;;;17.82;57.62;101075.25;4159709;28;20095;-60
2023/09/14 01:37:08;;;;;;;3.90;2.05;;;;;;;17.79;57.75;101076.13;4160090;28;20121;-60
2023/09/14 01:39:11;;;;;;;3.83;1.70;;;;;;;17.79;57.39;101082.25;4160900;28;20037;-61
2023/09/14 01:41:15;;;;;;;5.82;2.60;;;;;;;17.82;57.41;101080.50;4159474;28;20041;-61
2023/09/14 01:43:20;;;;;;;5.60;2.45;;;;;;;17.90;56.48;101078.72;4177635;28;20124;-61
2023/09/14 01:45:23;;;;;;;8.93;2.90;;;;;;;17.78;56.84;101080.53;4157622;28;20045;-61
2023/09/14 01:47:26;;;;;;;4.47;2.33;;;;;;;17.74;56.93;101084.03;4160348;28;20497;-61
2023/09/14 01:49:28;;;;;;;5.68;2.65;;;;;;;17.78;56.38;101077.88;4177278;28;20032;-61
2023/09/14 01:51:31;;;;;;;3.03;1.88;;;;;;;17.70;56.27;101073.56;4159686;28;20505;-60
2023/09/14 01:53:34;;;;;;;5.80;2.63;;;;;;;17.67;56.35;101074.44;4160343;28;20045;-61
2023/09/14 01:55:38;;;;;;;6.50;2.20;;;;;;;17.66;56.59;101083.19;4161040;28;20030;-62
2023/09/14 01:57:40;;;;;;;3.78;2.28;;;;;;;17.63;56.45;101077.97;4156594;28;20449;-61
2023/09/14 01:59:45;;;;;;;5.40;2.35;;;;;;;17.60;56.84;101086.72;4161011;28;20037;-62
2023/09/14 02:01:47;;;;;;;5.05;2.40;;;;;;;17.54;56.79;101072.75;4159623;28;20041;-62
2023/09/14 02:03:50;;;;;;;9.95;2.50;;;;;;;17.62;56.85;101076.19;4161421;28;20049;-62
2023/09/14 02:05:57;;;;;;;6.38;2.50;;;;;;;17.62;57.05;101081.47;4176325;28;20045;-62
2023/09/14 02:08:00;;;;;;;4.93;2.67;;;;;;;17.50;56.55;101084.16;4160683;28;20049;-62
2023/09/14 02:10:04;;;;;;;6.20;2.55;;;;;;;17.47;56.97;101078.91;4159667;28;20124;-62
2023/09/14 02:12:07;;;;;;;5.38;2.78;;;;;;;17.43;57.17;101084.19;4178886;28;20037;-62
2023/09/14 02:14:10;;;;;;;3.97;2.15;;;;;;;17.41;57.37;101088.56;4159929;28;20040;-62
2023/09/14 02:16:14;;;;;;;7.97;2.80;;;;;;;17.36;57.22;101087.72;4158650;28;20405;-62
2023/09/14 02:18:18;;;;;;;7.38;3.05;;;;;;;17.39;56.85;101077.19;4142355;28;20038;-62
2023/09/14 02:20:21;;;;;;;6.82;2.30;;;;;;;17.35;57.46;101079.84;4161113;28;20068;-62
2023/09/14 02:22:24;;;;;;;6.88;2.80;;;;;;;17.32;57.54;101083.34;4155951;28;20041;-62
2023/09/14 02:24:27;;;;;;;5.85;2.80;;;;;;;17.35;57.42;101083.34;4160593;28;20571;-62
2023/09/14 02:26:30;;;;;;;5.18;3.03;;;;;;;17.36;57.27;101078.94;4177975;28;20128;-62
2023/09/14 02:28:31;;;;;;;6.38;2.80;;;;;;;17.38;57.45;101077.19;4159675;28;20065;-62
2023/09/14 02:30:39;;;;;;;5.32;2.70;;;;;;;17.42;57.10;101077.19;4160449;28;20046;-62
2023/09/14 02:32:43;;;;;;;6.45;2.55;;;;;;;17.43;56.98;101084.19;4159548;28;20481;-62
2023/09/14 02:34:45;;;;;;;5.90;2.90;;;;;;;17.37;57.07;101078.94;4160682;28;20037;-62
2023/09/14 02:36:48;;;;;;;4.20;2.42;;;;;;;17.37;57.17;101092.06;4160418;28;20072;-62
2023/09/14 02:38:51;;;;;;;4.07;2.08;;;;;;;17.37;57.52;101092.06;4173240;28;20528;-62
2023/09/14 02:40:54;;;;;;;4.65;2.25;;;;;;;17.30;57.38;101095.59;4177318;28;20029;-62
2023/09/14 02:42:57;;;;;;;4.93;2.17;;;;;;;17.28;57.47;101089.50;4160186;28;20033;-62
2023/09/14 02:45:00;;;;;;;7.32;3.55;;;;;;;17.24;58.11;101093.91;4160209;28;20045;-62
2023/09/14 02:47:03;;;;;;;6.63;2.53;;;;;;;17.34;57.73;101089.47;4178597;28;20037;-62
2023/09/14 02:49:07;;;;;;;5.75;2.63;;;;;;;17.27;57.97;101103.50;4159822;28;20408;-62
2023/09/14 02:51:09;;;;;;;9.63;2.15;;;;;;;17.18;58.33;101095.66;4160757;28;20033;-62
2023/09/14 02:53:12;;;;;;;5.00;2.15;;;;;;;17.20;57.94;101094.78;4160736;28;20033;-62
2023/09/14 02:55:15;;;;;;;5.05;2.38;;;;;;;17.18;58.22;101099.16;4159472;28;20049;-62
2023/09/14 02:57:18;;;;;;;4.78;2.70;;;;;;;17.17;58.63;101099.16;4159872;28;20038;-62
2023/09/14 02:59:21;;;;;;;5.10;2.28;;;;;;;17.10;59.12;101087.81;4160428;28;20073;-61
2023/09/14 03:01:24;;;;;;;5.78;2.65;;;;;;;17.18;59.00;101095.66;4175458;28;20472;-62
2023/09/14 03:03:26;;;;;;;5.03;2.40;;;;;;;17.13;59.32;101095.69;4176320;28;20132;-61
2023/09/14 03:05:31;;;;;;;8.10;2.63;;;;;;;17.14;59.50;101096.53;4159883;28;20048;-62
2023/09/14 03:07:39;;;;;;;6.15;2.83;;;;;;;17.15;59.37;101093.91;4158542;28;20588;-62
2023/09/14 03:09:41;;;;;;;5.88;2.97;;;;;;;17.01;59.55;101093.97;4160506;28;20563;-62
2023/09/14 03:11:44;;;;;;;8.63;3.08;;;;;;;16.98;59.88;101096.59;4159910;28;20111;-62
2023/09/14 03:13:48;;;;;;;6.25;2.63;;;;;;;16.93;59.64;101087.84;4159504;28;20089;-61
2023/09/14 03:15:54;;;;;;;12.23;3.17;;;;;;;16.89;59.83;101097.47;4159510;28;20120;-62
2023/09/14 03:17:56;;;;;;;5.95;2.88;;;;;;;16.85;60.04;101100.06;4158608;28;20132;-62
2023/09/14 03:20:00;;;;;;;7.15;2.72;;;;;;;16.81;60.61;101103.59;4159556;28;20060;-62
2023/09/14 03:22:06;;;;;;;8.48;2.88;;;;;;;16.78;60.42;101106.19;4160318;28;20403;-62
2023/09/14 03:24:10;;;;;;;5.43;2.80;;;;;;;16.80;59.89;101102.69;4175614;28;20044;-62
2023/09/14 03:26:14;;;;;;;6.05;2.45;;;;;;;16.74;60.26;101108.81;4160993;28;20588;-61
2023/09/14 03:28:18;;;;;;;6.43;2.50;;;;;;;16.80;60.66;101107.09;4174452;28;20040;-61
2023/09/14 03:30:22;;;;;;;6.22;2.92;;;;;;;16.92;59.78;101107.97;4160402;28;20095;-62
2023/09/14 03:32:25;;;;;;;5.57;2.45;;;;;;;16.86;60.12;101105.31;4160023;28;20120;-61
2023/09/14 03:34:27;;;;;;;7.40;3.13;;;;;;;16.82;59.85;101116.72;4157436;28;20517;-62
2023/09/14 03:36:30;;;;;;;7.38;2.88;;;;;;;16.72;60.22;101126.34;4158761;28;20572;-61
2023/09/14 03:38:35;;;;;;;7.00;2.60;;;;;;;16.73;60.22;101122.84;4158898;28;20084;-61
2023/09/14 03:40:38;;;;;;;5.97;2.60;;;;;;;16.69;60.50;101130.69;4174279;28;20133;-62
2023/09/14 03:42:40;;;;;;;9.90;2.95;;;;;;;16.70;60.38;101125.44;4156244;28;20525;-62
2023/09/14 03:44:43;;;;;;;6.65;3.35;;;;;;;16.68;60.64;101124.59;4159867;28;20496;-62
2023/09/14 03:46:46;;;;;;;5.18;2.55;;;;;;;16.60;60.73;101131.56;4177574;28;20116;-62
2023/09/14 03:48:49;;;;;;;4.88;2.38;;;;;;;16.61;60.28;101117.59;4159733;28;20060;-62
2023/09/14 03:50:54;;;;;;;8.18;3.15;;;;;;;16.46;60.73;101120.22;4160302;28;20055;-61
2023/09/14 03:52:56;;;;;;;;;;;;;;;16.34;61.19;101119.34;4159918;28;20552;-61
2023/09/14 03:55:01;;;;;;;6.82;2.50;;;;;;;16.37;62.43;101127.22;4157812;28;19943;-60
2023/09/14 03:57:11;;;;;;;7.47;2.53;;;;;;;16.39;63.09;101127.22;4172709;28;20033;-60
2023/09/14 03:59:14;;;;;;;6.78;3.00;;;;;;;16.52;61.08;101136.84;4159943;28;20053;-60
2023/09/14 04:01:16;;;;;;;7.05;2.85;;;;;;;16.54;60.87;101135.09;4178403;28;20067;-60
2023/09/14 04:03:20;;;;;;;9.02;2.90;;;;;;;16.44;60.90;101140.31;4179059;28;20808;-60
2023/09/14 04:05:23;;;;;;;5.07;2.50;;;;;;;16.39;61.16;101137.72;4161598;28;20047;-60
2023/09/14 04:07:26;;;;;;;8.52;3.65;;;;;;;16.27;61.50;101133.31;4179745;28;20040;-60
2023/09/14 04:09:29;;;;;;;7.68;2.40;;;;;;;16.26;62.03;101135.94;4162616;28;20041;-60
2023/09/14 04:11:34;;;;;;;6.15;3.15;;;;;;;16.36;61.57;101140.34;4166186;28;20091;-60
2023/09/14 04:13:35;;;;;;;6.05;2.65;;;;;;;16.29;61.87;101136.81;4178296;28;20075;-60
2023/09/14 04:15:42;;;;;;;5.40;2.40;;;;;;;16.29;62.19;101142.06;4163533;28;20107;-60
2023/09/14 04:17:46;;;;;;;7.75;3.17;;;;;;;16.45;61.87;101142.09;4160458;28;20037;-60
2023/09/14 04:19:49;;;;;;;7.65;3.22;;;;;;;16.55;61.57;101144.72;4163374;28;20465;-60
2023/09/14 04:21:52;;;;;;;7.18;2.95;;;;;;;16.61;61.08;101143.84;4140373;28;20563;-60
2023/09/14 04:23:55;;;;;;;9.05;2.75;;;;;;;16.63;61.22;101139.47;4159575;28;20049;-60
2023/09/14 04:25:57;;;;;;;7.00;2.72;;;;;;;16.60;61.45;101143.84;4162305;28;20123;-60
2023/09/14 04:28:02;;;;;;;6.30;2.60;;;;;;;16.65;60.41;101144.72;4159965;28;20041;-62
2023/09/14 04:30:05;;;;;;;;;;;;;;;16.55;60.53;101135.97;4173545;28;20600;-62
2023/09/14 04:32:08;;;;;;;6.97;2.97;;;;;;;16.36;61.27;101142.97;4172244;28;19928;-61
2023/09/14 04:34:12;;;;;;;7.07;2.58;;;;;;;16.27;60.98;101135.09;4177405;28;20041;-61
2023/09/14 04:36:14;;;;;;;4.85;2.60;;;;;;;16.20;61.03;101136.81;4178553;28;20147;-61
2023/09/14 04:38:19;;;;;;;;;;;;;;;15.97;61.68;101139.38;4177775;28;20527;-61
2023/09/14 04:40:24;;;;;;;7.90;3.38;;;;;;;15.85;62.24;101142.84;4178126;28;19966;-61
2023/09/14 04:42:27;;;;;;;;;;;;;;;15.77;62.47;101152.38;4161114;28;20034;-61
2023/09/14 04:44:31;;;;;;;7.45;2.88;;;;;;;15.80;62.42;101141.91;4161874;28;19968;-61
2023/09/14 04:46:36;;;;;;;9.18;2.85;;;;;;;15.86;61.90;101149.84;4162688;28;20146;-61
2023/09/14 04:48:38;;;;;;;8.23;3.40;;;;;;;15.97;61.31;101155.09;4162797;28;20037;-62
2023/09/14 04:50:42;;;;;;;7.63;2.85;;;;;;;15.84;61.99;101154.19;4162010;28;20065;-62
2023/09/14 04:52:45;;;;;;;7.28;3.10;;;;;;;15.80;61.92;101157.66;4158322;28;20053;-62
2023/09/14 04:54:48;;;;;;;5.70;3.08;;;;;;;15.71;62.07;101159.34;4161312;28;20069;-62
2023/09/14 04:56:51;;;;;;;5.25;2.70;;;;;;;15.79;62.54;101161.16;4161768;28;20041;-61
2023/09/14 04:58:58;;;;;;;5.55;2.50;;;;;;;15.81;62.73;101160.31;4161426;28;20519;-61
2023/09/14 05:01:02;;;;;;;7.22;2.95;;;;;;;15.93;62.03;101164.72;4161897;28;20033;-62
2023/09/14 05:03:05;;;;;;;;;;;;;;;15.76;62.41;101171.63;4158848;28;20083;-62
2023/09/14 05:05:09;;;;;;;8.55;3.00;;;;;;;15.67;62.62;101178.56;4161081;28;19932;-62
2023/09/14 05:07:12;;;;;;;8.02;2.75;;;;;;;15.62;62.21;101168.91;4162327;28;20071;-62
2023/09/14 05:09:15;;;;;;;9.20;2.92;;;;;;;15.61;62.22;101172.41;4161297;28;20041;-62
2023/09/14 05:11:18;;;;;;;6.97;2.95;;;;;;;15.52;62.65;101167.97;4162114;28;20037;-62
2023/09/14 05:13:21;;;;;;;6.05;3.25;;;;;;;15.49;62.54;101165.34;4162757;28;20552;-62
2023/09/14 05:15:24;;;;;;;7.68;3.13;;;;;;;15.57;62.29;101170.66;4161812;28;20052;-62
2023/09/14 05:17:29;;;;;;;7.88;2.72;;;;;;;15.53;62.66;101178.47;4179805;28;20136;-62
2023/09/14 05:19:31;;;;;;;8.85;3.38;;;;;;;15.62;62.31;101175.03;4145451;28;20057;-62
2023/09/14 05:21:34;;;;;;;7.38;3.78;;;;;;;15.65;61.64;101180.31;4162140;28;20099;-62
2023/09/14 05:23:37;;;;;;;8.65;3.33;;;;;;;15.60;62.26;101178.53;4174742;28;20033;-62
2023/09/14 05:25:40;;;;;;;6.68;2.65;;;;;;;15.53;62.01;101177.59;4161663;28;20456;-62
2023/09/14 05:27:43;;;;;;;7.43;3.60;;;;;;;15.47;62.49;101174.97;4161861;28;20084;-61
2023/09/14 05:29:46;;;;;;;10.25;3.50;;;;;;;15.55;62.13;101186.38;4161840;28;20041;-60
2023/09/14 05:31:49;;;;;;;7.97;3.90;;;;;;;15.54;62.22;101176.75;4161765;28;20456;-61
2023/09/14 05:33:53;;;;;;;9.20;3.22;;;;;;;15.59;61.95;101177.63;4145774;28;20425;-61
2023/09/14 05:35:57;;;;;;;7.57;3.40;;;;;;;15.62;61.88;101189.88;4177990;28;20037;-61
2023/09/14 05:37:58;;;;;;;7.90;3.35;;;;;;;15.58;62.41;101183.75;4161216;28;20029;-61
2023/09/14 05:40:08;;;;;;;8.48;3.53;;;;;;;15.67;62.16;101188.19;4161679;28;20476;-61
2023/09/14 05:42:11;;;;;;;10.25;4.00;;;;;;;15.76;61.51;101185.59;4161758;28;20113;-61
2023/09/14 05:44:14;;;;;;;6.72;3.35;;;;;;;15.74;61.81;101183.81;4161907;28;20040;-62
2023/09/14 05:46:17;;;;;;;7.55;3.60;;;;;;;15.69;61.69;101192.53;4161278;28;20045;-61
2023/09/14 05:48:20;;;;;;;8.25;3.33;;;;;;;15.59;62.39;101182.88;4161410;28;20489;-61
2023/09/14 05:50:25;;;;;;;8.52;3.70;;;;;;;15.56;62.21;101190.72;4161256;28;20146;-61
2023/09/14 05:52:28;;;;;;;6.85;4.00;;;;;;;15.56;62.45;101190.72;4161378;28;20099;-61
2023/09/14 05:54:32;;;;;;;9.48;3.58;;;;;;;15.46;62.49;101187.19;4161786;28;20037;-61
2023/09/14 05:56:34;;;;;;;8.63;3.72;;;;;;;15.45;62.74;101188.06;4161479;28;20494;-61
2023/09/14 05:58:38;;;;;;;12.65;4.13;;;;;;;15.42;62.84;101184.53;4160175;28;20045;-61
2023/09/14 06:00:41;;;;;;;14.02;4.65;;;;;;;15.47;62.84;101182.81;4159572;28;20038;-61
2023/09/14 06:02:44;;;;;;;8.73;4.00;;;;;;;15.41;62.95;101191.53;4161340;28;20041;-62
2023/09/14 06:04:48;;;;;;;8.65;4.03;;;;;;;15.52;62.21;101192.47;4174374;28;20060;-62
2023/09/14 06:06:52;;;;;;;11.18;4.50;;;;;;;15.62;62.37;101190.75;4178594;28;20053;-62
2023/09/14 06:08:55;;;;;;;9.13;4.88;;;;;;;15.60;62.00;101184.63;4179079;28;20051;-61
2023/09/14 06:10:59;;;;;;;9.52;4.13;;;;;;;15.56;62.41;101188.09;4161142;28;20544;-62
2023/09/14 06:13:02;;;;;;;12.35;4.55;;;;;;;15.67;61.75;101183.81;4161087;28;20152;-62
2023/09/14 06:15:06;;;;;;;12.18;4.57;;;;;;;15.65;62.07;101182.03;4178788;28;20635;-62
2023/09/14 06:17:09;;;;;;;16.50;4.80;;;;;;;15.66;61.84;101182.03;4178752;28;20157;-61
2023/09/14 06:19:11;;;;;;;10.00;4.20;;;;;;;15.74;62.26;101183.81;4179128;28;20052;-61
2023/09/14 06:21:14;;;;;;;10.20;4.35;;;;;;;15.90;61.77;101190.03;4178163;28;20036;-62
2023/09/14 06:23:18;;;;;;;10.38;4.30;;;;;;;15.96;60.67;101180.47;4179126;28;20223;-61
2023/09/14 06:25:21;;;;;;;9.60;4.63;;;;;;;15.90;61.45;101184.78;4177012;28;20033;-61
2023/09/14 06:27:23;;;;;;;8.80;4.13;;;;;;;15.82;62.62;101187.41;4178717;28;20094;-61
2023/09/14 06:29:26;;;;;;;9.32;3.78;;;;;;;15.99;61.67;101190.06;4178663;28;20539;-61
2023/09/14 06:31:29;;;;;;;8.23;4.25;;;;;;;15.95;61.81;101191.81;4179147;28;20041;-62
2023/09/14 06:33:32;;;;;;;12.55;5.15;;;;;;;16.09;60.72;101183.13;4161054;28;20041;-61
2023/09/14 06:35:35;;;;;;;8.10;4.28;;;;;;;16.09;61.06;101186.63;4176958;28;20518;-61
2023/09/14 06:37:38;;;;;;;12.38;4.38;;;;;;;16.18;60.47;101191.91;4176170;28;20087;-61
2023/09/14 06:39:42;;;;;;;7.82;4.90;;;;;;;16.17;59.97;101189.28;4179250;28;20565;-61
2023/09/14 06:41:45;;;;;;;9.98;4.82;;;;;;;16.15;60.48;101191.88;4178404;28;20527;-61
2023/09/14 06:43:48;;;;;;;12.07;4.18;;;;;;;16.26;59.87;101198.91;4178444;28;20056;-61
2023/09/14 06:45:51;;;;;;;9.93;3.75;;;;;;;16.28;59.73;101195.44;4178443;28;20528;-61
2023/09/14 06:47:54;;;;;;;12.32;4.40;;;;;;;16.31;59.34;101197.16;4178879;28;20051;-61
2023/09/14 06:49:57;;;;;;;9.27;4.00;;;;;;;16.35;59.14;101198.94;4178510;28;20040;-61
2023/09/14 06:52:00;;;;;;;10.70;4.65;;;;;;;16.37;58.60;101200.69;4160530;28;20048;-61
2023/09/14 06:54:04;;;;;;;10.38;4.35;;;;;;;16.20;59.62;101198.00;4144904;28;20298;-61
2023/09/14 06:56:10;;;;;;;;;;;;;;;16.21;60.20;101206.78;4175210;28;20048;-62
2023/09/14 06:58:15;;;;;;;10.73;3.88;;;;;;;16.25;59.65;101203.25;4178399;28;19920;-62
2023/09/14 07:00:21;;;;;;;10.40;3.95;;;;;;;16.47;58.76;101201.59;4178427;28;20052;-62
2023/09/14 07:02:24;;;;;;;6.10;3.45;;;;;;;16.31;59.79;101200.69;4177781;28;20095;-62
2023/09/14 07:04:28;;;;;;;7.88;3.35;;;;;;;16.43;58.70;101207.69;4178597;28;20037;-62
2023/09/14 07:06:33;;;;;;;6.40;3.30;;;;;;;16.36;58.92;101198.94;4160656;28;20043;-62
2023/09/14 07:08:40;;;;;;;12.80;3.90;;;;;;;16.49;58.40;101196.34;4177522;28;20045;-62
2023/09/14 07:10:43;;;;;;;12.60;3.30;;;;;;;16.37;58.98;101205.94;4178260;28;20115;-62
2023/09/14 07:12:48;;;;;;;6.75;3.50;;;;;;;16.49;58.65;101198.97;4178470;28;20039;-62
2023/09/14 07:14:51;;;;;;;8.90;3.25;;;;;;;16.44;58.93;101196.34;4174316;28;20045;-61
2023/09/14 07:16:54;;;;;;;8.40;3.35;;;;;;;16.45;59.49;101205.06;4176751;28;20048;-61
2023/09/14 07:18:56;;;;;;;8.95;3.70;;;;;;;16.62;58.99;101197.22;4178163;28;20033;-61
2023/09/14 07:21:01;;;;;;;5.68;3.10;;;;;;;16.56;58.70;101204.22;4178178;28;20490;-61
2023/09/14 07:23:04;;;;;;;8.50;3.60;;;;;;;16.64;58.50;101201.59;4178755;28;20029;-61
2023/09/14 07:25:08;;;;;;;9.55;3.40;;;;;;;16.71;57.97;101205.13;4177953;28;20040;-60
2023/09/14 07:27:12;;;;;;;10.30;3.25;;;;;;;16.71;58.06;101203.34;4159849;28;20042;-61
2023/09/14 07:29:16;;;;;;;7.78;3.88;;;;;;;16.72;58.54;101206.88;4177760;28;20033;-61
2023/09/14 07:31:19;;;;;;;11.43;3.33;;;;;;;16.71;58.51;101203.34;4176871;28;20488;-62
2023/09/14 07:33:25;;;;;;;5.82;2.92;;;;;;;16.78;58.47;101203.34;4181431;28;20098;-61
2023/09/14 07:35:28;;;;;;;11.23;3.28;;;;;;;16.82;58.84;101202.47;4181042;28;20528;-61
2023/09/14 07:37:31;;;;;;;10.63;3.35;;;;;;;16.91;58.68;101210.41;4179749;28;20293;-61
2023/09/14 07:39:35;;;;;;;8.38;3.65;;;;;;;16.98;58.71;101217.41;4163905;28;20045;-61
2023/09/14 07:41:38;;;;;;;9.75;3.70;;;;;;;17.12;58.04;101221.78;4163347;28;20088;-62
2023/09/14 07:43:41;;;;;;;8.25;3.72;;;;;;;17.03;58.51;101220.91;4163177;28;20132;-62
2023/09/14 07:45:44;;;;;;;9.93;3.85;;;;;;;17.14;57.83;101222.66;4180737;28;20106;-61
2023/09/14 07:47:47;;;;;;;10.68;3.15;;;;;;;17.24;57.24;101221.75;4164074;28;20045;-61
2023/09/14 07:49:50;;;;;;;8.88;3.70;;;;;;;17.24;57.82;101229.66;4181138;28;20063;-61
2023/09/14 07:51:53;;;;;;;12.60;4.03;;;;;;;17.20;58.09;101228.78;4180470;28;20047;-61
2023/09/14 07:53:56;;;;;;;9.02;3.42;;;;;;;17.19;58.47;101227.03;4181634;28;20037;-61
2023/09/14 07:55:59;;;;;;;9.25;3.75;;;;;;;17.45;57.43;101234.03;4177523;28;20572;-61
2023/09/14 07:58:02;;;;;;;5.50;3.22;;;;;;;17.32;57.35;101230.53;4180474;28;20041;-61
2023/09/14 08:00:07;;;;;;;5.82;3.20;;;;;;;17.42;57.87;101239.25;4180057;28;20041;-61
2023/09/14 08:02:14;;;;;;;6.32;2.95;;;;;;;17.39;57.63;101232.28;4180849;28;20048;-61
2023/09/14 08:04:17;;;;;;;7.18;3.10;;;;;;;17.35;57.84;101235.78;4181152;28;20075;-61
2023/09/14 08:06:23;;;;;;;8.65;3.38;;;;;;;17.42;57.32;101240.16;4180258;28;20124;-61
2023/09/14 08:08:27;;;;;;;4.90;3.25;;;;;;;17.53;57.70;101232.22;4180973;28;20471;-61
2023/09/14 08:10:30;;;;;;;7.65;3.17;;;;;;;17.63;57.24;101238.34;4180323;28;20496;-62
2023/09/14 08:12:32;;;;;;;8.90;3.17;;;;;;;17.71;57.08;101233.97;4180588;28;20037;-61
2023/09/14 08:14:35;;;;;;;9.77;3.15;;;;;;;17.75;56.86;101237.44;4176789;28;20485;-61
2023/09/14 08:16:37;;;;;;;11.25;2.95;;;;;;;17.69;57.67;101240.09;4179650;28;20041;-61
2023/09/14 08:18:42;;;;;;;7.45;3.08;;;;;;;17.87;56.70;101240.03;4180847;28;20132;-61
2023/09/14 08:20:46;;;;;;;7.97;2.53;;;;;;;17.85;56.58;101236.53;4159711;28;20132;-61
2023/09/14 08:22:50;;;;;;;10.77;3.65;;;;;;;17.93;56.53;101231.25;4180707;28;20094;-61
2023/09/14 08:24:54;;;;;;;9.90;2.92;;;;;;;17.99;56.47;101231.25;4180034;28;20124;-61
2023/09/14 08:26:57;;;;;;;6.10;3.00;;;;;;;18.05;56.28;101240.88;4180786;28;20045;-61
2023/09/14 08:29:00;;;;;;;11.75;2.97;;;;;;;18.11;56.34;101236.47;4177291;28;20029;-61
2023/09/14 08:31:03;;;;;;;7.80;2.88;;;;;;;18.18;55.95;101228.53;4180592;28;20078;-61
2023/09/14 08:33:06;;;;;;;6.95;3.65;;;;;;;18.19;56.36;101230.28;4180498;28;20056;-62
2023/09/14 08:35:24;;;;;;;7.35;3.15;;;;;;;18.27;56.51;101228.50;4180627;28;20036;-61
2023/09/14 08:37:28;;;;;;;6.25;3.25;;;;;;;18.38;55.53;101233.69;4179399;28;20048;-61
2023/09/14 08:39:31;;;;;;;8.50;3.20;;;;;;;18.32;55.76;101231.97;4180724;28;20412;-62
2023/09/14 08:41:35;;;;;;;6.88;3.45;;;;;;;18.40;56.37;101230.19;4179990;28;20143;-61
2023/09/14 08:43:39;;;;;;;6.25;3.05;;;;;;;18.45;55.94;101228.38;4179093;28;20045;-61
2023/09/14 08:45:43;;;;;;;9.32;3.25;;;;;;;18.46;56.47;101222.22;4179444;28;20124;-62
2023/09/14 08:47:47;;;;;;;12.60;4.78;;;;;;;18.74;54.64;101221.19;4162915;28;20108;-62
2023/09/14 08:49:51;;;;;;;8.77;3.00;;;;;;;18.79;54.16;101219.38;4177145;28;20416;-61
2023/09/14 08:51:58;;;;;;;6.65;2.88;;;;;;;18.69;55.20;101226.50;4180302;28;20040;-61
2023/09/14 08:54:01;;;;;;;7.38;2.88;;;;;;;18.78;55.07;101234.31;4179985;28;20408;-62
2023/09/14 08:56:18;;;;;;;4.85;2.80;;;;;;;18.93;54.79;101216.69;4180226;28;20048;-61
2023/09/14 08:58:23;;;;;;;5.55;2.78;;;;;;;19.10;53.94;101229.69;4180200;28;20068;-61
2023/09/14 09:00:28;;;;;;;4.57;2.42;;;;;;;19.06;54.17;101228.84;4179795;28;20036;-61
2023/09/14 09:02:33;;;;;;;6.40;2.90;;;;;;;19.12;53.58;101228.78;4179118;28;20033;-62
2023/09/14 09:04:36;;;;;;;8.50;2.88;;;;;;;19.18;53.13;101223.47;4176922;28;20511;-62
2023/09/14 09:06:45;;;;;;;6.07;3.15;;;;;;;19.10;53.40;101225.31;4178396;28;20040;-61
2023/09/14 09:08:50;;;;;;;5.05;2.53;;;;;;;19.24;52.56;101217.25;4161372;28;20076;-62
2023/09/14 09:10:52;;;;;;;4.68;2.58;;;;;;;19.11;53.49;101227.03;4179052;28;20037;-62
2023/09/14 09:12:56;;;;;;;10.38;3.13;;;;;;;19.19;53.72;101235.75;4179208;28;20032;-62
2023/09/14 09:15:02;;;;;;;6.45;2.42;;;;;;;19.39;52.38;101232.09;4179603;28;20458;-62
2023/09/14 09:17:06;;;;;;;6.22;2.85;;;;;;;19.42;52.99;101232.03;4179653;28;20032;-61
2023/09/14 09:19:10;;;;;;;5.20;2.38;;;;;;;19.54;52.17;101226.63;4179273;28;20041;-61
2023/09/14 09:21:27;;;;;;;11.95;3.15;;;;;;;19.54;51.87;101220.50;4178580;28;20029;-62
2023/09/14 09:23:33;;;;;;;10.68;3.78;;;;;;;19.68;51.13;101223.84;4178643;28;20040;-61
2023/09/14 09:25:46;;;;;;;6.72;3.00;;;;;;;19.65;51.41;101215.09;4161562;28;20128;-61
2023/09/14 09:27:57;;;;;;;10.23;3.35;;;;;;;19.64;52.01;101222.13;4175937;28;20477;-62
2023/09/14 09:29:59;;;;;;;8.88;3.22;;;;;;;19.62;52.52;101223.03;4176079;28;20025;-61
2023/09/14 09:32:02;;;;;;;9.45;2.90;;;;;;;19.78;52.03;101218.47;4178642;28;20064;-62
2023/09/14 09:34:08;;;;;;;15.35;3.50;;;;;;;19.96;50.97;101217.38;4178906;28;20041;-62
2023/09/14 09:36:15;;;;;;;8.75;3.22;;;;;;;20.09;51.25;101218.97;4178956;28;20048;-62
2023/09/14 09:38:19;;;;;;;6.20;3.17;;;;;;;20.15;51.22;101213.63;4178859;28;20049;-62